createdAt,value
2022-10-19T00:01:48.012Z,9.25
2022-10-19T00:06:50.584Z,9.16
2022-10-19T00:11:54.659Z,9.11
2022-10-19T00:16:58.174Z,9.20
2022-10-19T00:22:00.977Z,9.14
2022-10-19T00:27:06.248Z,9.13
2022-10-19T00:32:09.033Z,8.95
2022-10-19T00:37:11.592Z,8.72
2022-10-19T00:42:15.737Z,8.51
2022-10-19T00:47:24.393Z,8.28
2022-10-19T00:52:28.732Z,8.34
2022-10-19T00:57:33.973Z,8.50
2022-10-19T01:02:37.400Z,8.59
2022-10-19T01:07:40.509Z,8.63
2022-10-19T01:13:06.081Z,8.67
2022-10-19T01:18:20.563Z,8.55
2022-10-19T01:23:46.527Z,8.64
2022-10-19T01:29:05.737Z,8.65
2022-10-19T01:34:12.740Z,8.66
2022-10-19T01:39:24.292Z,8.53
2022-10-19T01:44:31.666Z,8.34
2022-10-19T01:49:41.714Z,8.25
2022-10-19T01:54:48.748Z,8.21
2022-10-19T01:59:53.604Z,8.09
2022-10-19T02:04:58.707Z,8.14
2022-10-19T02:10:01.960Z,8.13
2022-10-19T02:15:12.074Z,7.99
2022-10-19T02:20:17.269Z,7.91
2022-10-19T02:25:20.448Z,7.90
2022-10-19T02:30:23.277Z,7.81
2022-10-19T02:35:27.640Z,7.77
2022-10-19T02:40:33.608Z,7.68
2022-10-19T02:45:40.321Z,7.88
2022-10-19T02:50:47.531Z,7.98
2022-10-19T02:55:51.941Z,7.98
2022-10-19T03:00:54.762Z,8.03
2022-10-19T03:05:58.892Z,8.07
2022-10-19T03:11:01.898Z,8.05
2022-10-19T03:16:09.149Z,8.02
2022-10-19T03:21:14.703Z,8.00
2022-10-19T03:26:18.838Z,8.05
2022-10-19T03:31:21.572Z,8.11
2022-10-19T03:36:27.744Z,8.13
2022-10-19T03:41:32.271Z,8.14
2022-10-19T03:46:35.737Z,8.13
2022-10-19T03:51:39.913Z,8.13
2022-10-19T03:56:43.061Z,8.21
2022-10-19T04:01:46.800Z,8.23
2022-10-19T04:06:53.425Z,8.29
2022-10-19T04:11:56.173Z,8.26
2022-10-19T04:16:58.751Z,8.26
2022-10-19T04:22:02.872Z,8.31
2022-10-19T04:27:05.633Z,8.08
2022-10-19T04:32:08.238Z,8.00
2022-10-19T04:37:12.374Z,8.29
2022-10-19T04:42:15.125Z,8.42
2022-10-19T04:47:17.717Z,8.36
2022-10-19T04:52:22.003Z,8.49
2022-10-19T04:57:24.761Z,8.50
2022-10-19T05:02:27.348Z,8.41
2022-10-19T05:07:31.794Z,8.52
2022-10-19T05:12:35.830Z,8.57
2022-10-19T05:17:38.546Z,8.64
2022-10-19T05:22:42.494Z,8.68
2022-10-19T05:27:45.771Z,8.75
2022-10-19T05:32:49.003Z,8.74
2022-10-19T05:37:56.719Z,8.70
2022-10-19T05:42:59.473Z,8.69
2022-10-19T05:48:02.060Z,8.67
2022-10-19T05:53:06.177Z,8.67
2022-10-19T05:58:08.880Z,8.72
2022-10-19T06:03:11.592Z,8.72
2022-10-19T06:08:16.108Z,8.69
2022-10-19T06:13:20.837Z,8.73
2022-10-19T06:18:25.621Z,8.78
2022-10-19T06:23:29.818Z,8.80
2022-10-19T06:28:32.609Z,9.19
2022-10-19T06:33:35.271Z,9.51
2022-10-19T06:38:39.769Z,9.69
2022-10-19T06:43:43.330Z,9.80
2022-10-19T06:48:46.101Z,9.56
2022-10-19T06:53:52.915Z,9.69
2022-10-19T06:58:59.142Z,9.95
2022-10-19T07:04:02.669Z,10.15
2022-10-19T07:09:06.770Z,10.08
2022-10-19T07:14:10.275Z,9.97
2022-10-19T07:19:14.123Z,10.10
2022-10-19T07:24:18.877Z,10.16
2022-10-19T07:29:21.580Z,10.39
2022-10-19T07:34:25.515Z,10.68
2022-10-19T07:39:32.515Z,10.67
2022-10-19T07:44:35.307Z,10.74
2022-10-19T07:49:38.320Z,11.02
2022-10-19T07:54:42.596Z,11.18
2022-10-19T07:59:45.644Z,11.30
2022-10-19T08:05:00.844Z,11.65
2022-10-19T08:10:08.042Z,11.91
2022-10-19T08:15:11.165Z,11.97
2022-10-19T08:20:13.920Z,12.06
2022-10-19T08:25:17.984Z,12.23
2022-10-19T08:30:20.937Z,12.38
2022-10-19T08:35:23.759Z,12.46
2022-10-19T08:40:29.769Z,12.54
2022-10-19T08:45:42.516Z,12.59
2022-10-19T08:50:45.944Z,12.67
2022-10-19T08:56:04.543Z,12.83
2022-10-19T09:01:15.040Z,13.03
2022-10-19T09:06:24.057Z,13.25
2022-10-19T09:11:31.371Z,13.54
2022-10-19T09:16:35.080Z,13.61
2022-10-19T09:21:47.277Z,13.60
2022-10-19T09:26:54.452Z,13.68
2022-10-19T09:32:01.801Z,13.69
2022-10-19T09:37:04.718Z,13.93
2022-10-19T09:42:18.180Z,14.04
2022-10-19T09:47:36.343Z,14.36
2022-10-19T09:52:41.693Z,14.36
2022-10-19T09:57:47.169Z,14.44
2022-10-19T10:02:51.579Z,14.89
2022-10-19T10:07:56.686Z,14.99
2022-10-19T10:13:01.938Z,14.57
2022-10-19T10:18:04.892Z,14.29
2022-10-19T10:23:11.094Z,14.23
2022-10-19T10:28:22.224Z,13.92
2022-10-19T10:33:40.393Z,13.87
2022-10-19T10:38:50.980Z,13.56
2022-10-19T10:44:00.765Z,13.53
2022-10-19T10:49:08.743Z,13.78
2022-10-19T10:54:19.423Z,13.59
2022-10-19T10:59:28.649Z,13.54
2022-10-19T11:04:36.922Z,13.68
2022-10-19T11:09:44.618Z,13.63
2022-10-19T11:14:52.162Z,13.76
2022-10-19T11:19:55.015Z,13.90
2022-10-19T11:25:08.132Z,13.97
2022-10-19T11:30:15.907Z,14.09
2022-10-19T11:35:31.743Z,14.36
2022-10-19T11:40:42.746Z,15.22
2022-10-19T11:46:05.766Z,18.17
2022-10-19T11:51:21.912Z,16.54
2022-10-19T11:56:44.660Z,16.82
2022-10-19T12:01:55.349Z,18.60
2022-10-19T12:07:09.809Z,17.99
2022-10-19T12:12:24.876Z,17.52
2022-10-19T12:17:33.267Z,18.07
2022-10-19T12:22:38.471Z,18.46
2022-10-19T12:27:42.751Z,18.79
2022-10-19T12:33:03.896Z,18.57
2022-10-19T12:38:11.645Z,18.47
2022-10-19T12:43:20.956Z,18.45
2022-10-19T12:48:25.590Z,17.41
2022-10-19T12:53:31.456Z,18.35
2022-10-19T12:58:43.632Z,18.93
2022-10-19T13:04:06.549Z,16.82
2022-10-19T13:09:21.418Z,15.62
2022-10-19T13:14:44.560Z,15.33
2022-10-19T13:19:48.480Z,15.14
2022-10-19T13:25:34.062Z,16.09
2022-10-19T13:31:06.209Z,16.58
2022-10-19T13:36:14.235Z,17.14
2022-10-19T13:41:21.487Z,17.44
2022-10-19T13:46:35.473Z,17.80
2022-10-19T13:51:51.137Z,18.34
2022-10-19T13:57:07.463Z,18.05
2022-10-19T14:02:47.831Z,17.85
2022-10-19T14:08:04.318Z,18.57
2022-10-19T14:13:12.868Z,17.77
2022-10-19T14:18:23.925Z,17.40
2022-10-19T14:23:29.656Z,17.05
2022-10-19T14:28:33.502Z,16.99
2022-10-19T14:33:40.669Z,16.55
2022-10-19T14:38:45.172Z,16.69
2022-10-19T14:43:48.095Z,17.08
2022-10-19T14:48:51.730Z,16.72
2022-10-19T14:54:00.550Z,16.96
2022-10-19T14:59:07.833Z,16.99
2022-10-19T15:04:10.624Z,16.83
2022-10-19T15:09:36.785Z,16.54
2022-10-19T15:14:46.638Z,16.23
2022-10-19T15:19:49.571Z,16.19
2022-10-19T15:25:00.124Z,15.85
2022-10-19T15:30:06.653Z,14.76
2022-10-19T15:35:12.227Z,13.96
2022-10-19T15:40:23.831Z,13.43
2022-10-19T15:45:35.380Z,13.08
2022-10-19T15:50:43.490Z,12.79
2022-10-19T15:55:47.652Z,12.47
2022-10-19T16:00:50.463Z,12.25
2022-10-19T16:05:53.343Z,11.97
2022-10-19T16:10:57.452Z,11.97
2022-10-19T16:16:10.459Z,11.83
2022-10-19T16:21:14.125Z,11.63
2022-10-19T16:26:19.484Z,11.54
2022-10-19T16:31:23.638Z,11.42
2022-10-19T16:36:26.576Z,11.21
2022-10-19T16:41:30.802Z,11.15
2022-10-19T16:46:33.752Z,11.06
2022-10-19T16:51:37.651Z,11.01
2022-10-19T16:56:46.047Z,10.84
2022-10-19T17:01:49.418Z,10.76
2022-10-19T17:06:52.325Z,10.70
2022-10-19T17:11:56.437Z,10.66
2022-10-19T17:16:59.209Z,10.53
2022-10-19T17:22:02.878Z,10.38
2022-10-19T17:27:07.225Z,10.30
2022-10-19T17:32:10.004Z,10.17
2022-10-19T17:37:12.587Z,10.05
2022-10-19T17:42:16.717Z,9.98
2022-10-19T17:47:19.436Z,9.94
2022-10-19T17:52:22.057Z,9.80
2022-10-19T17:57:26.228Z,9.71
2022-10-19T18:02:29.014Z,9.61
2022-10-19T18:07:32.209Z,9.53
2022-10-19T18:12:36.645Z,9.49
2022-10-19T18:17:39.823Z,9.45
2022-10-19T18:27:51.917Z,9.38
2022-10-19T18:32:55.085Z,9.35
2022-10-19T18:37:58.316Z,9.26
2022-10-19T18:43:02.668Z,9.24
2022-10-19T18:48:05.914Z,9.22
2022-10-19T18:53:08.669Z,9.20
2022-10-19T18:58:13.211Z,9.20
2022-10-19T19:03:15.952Z,9.20
2022-10-19T19:08:18.500Z,9.19
2022-10-19T19:13:23.290Z,9.11
2022-10-19T19:18:26.438Z,9.19
2022-10-19T19:23:29.424Z,9.18
2022-10-19T19:28:35.503Z,9.17
2022-10-19T19:33:40.726Z,9.05
2022-10-19T19:38:44.157Z,9.11
2022-10-19T19:43:48.431Z,9.02
2022-10-19T19:48:51.311Z,8.96
2022-10-19T19:53:54.303Z,8.90
2022-10-19T19:59:00.344Z,8.84
2022-10-19T20:09:11.712Z,8.77
2022-10-19T20:14:16.152Z,8.75
2022-10-19T20:19:18.966Z,8.70
2022-10-19T20:24:21.717Z,8.67
2022-10-19T20:29:25.984Z,8.59
2022-10-19T20:34:28.770Z,8.60
2022-10-19T20:39:31.361Z,8.46
2022-10-19T20:44:35.525Z,8.46
2022-10-19T20:49:38.565Z,8.35
2022-10-19T20:54:41.412Z,8.24
2022-10-19T20:59:45.713Z,8.16
2022-10-19T21:04:48.523Z,7.98
2022-10-19T21:09:51.505Z,7.97
2022-10-19T21:14:55.623Z,7.93
2022-10-19T21:19:58.331Z,7.79
2022-10-19T21:31:08.623Z,7.76
2022-10-19T21:36:14.661Z,7.70
2022-10-19T21:41:23.830Z,7.69
2022-10-19T21:46:34.237Z,7.69
2022-10-19T21:51:40.528Z,7.69
2022-10-19T21:56:43.879Z,7.61
2022-10-19T22:01:47.979Z,7.58
2022-10-19T22:06:50.793Z,7.44
2022-10-19T22:11:53.484Z,7.50
2022-10-19T22:16:57.342Z,7.50
2022-10-19T22:22:00.029Z,7.44
2022-10-19T22:27:02.546Z,7.39
2022-10-19T22:32:06.656Z,7.40
2022-10-19T22:37:09.326Z,7.44
2022-10-19T22:42:11.829Z,7.30
2022-10-19T22:47:15.958Z,7.31
2022-10-19T23:05:43.178Z,7.17
2022-10-19T23:10:47.891Z,7.06
2022-10-19T23:15:52.678Z,7.07
2022-10-19T23:21:06.805Z,7.10
2022-10-19T23:26:23.239Z,7.04
2022-10-19T23:31:30.327Z,7.09
2022-10-19T23:36:33.108Z,7.13
2022-10-19T23:41:37.579Z,6.99
2022-10-19T23:46:40.341Z,7.03
2022-10-19T23:51:42.860Z,6.94
2022-10-19T23:56:46.866Z,6.84
